createdAt,value
2023-05-01T10:14:29.845Z,4.03
2023-05-01T10:16:58.168Z,4.40
2023-05-01T10:19:26.091Z,3.85
2023-05-01T10:21:53.761Z,4.47
2023-05-01T10:24:22.266Z,2.88
2023-05-01T10:26:50.993Z,3.58
2023-05-01T10:29:21.042Z,2.83
2023-05-01T10:31:48.775Z,3.42
2023-05-01T10:34:20.185Z,2.53
2023-05-01T10:36:58.990Z,2.63
2023-05-01T10:42:11.343Z,2.95
2023-05-01T10:44:39.213Z,2.90
2023-05-01T10:47:43.127Z,3.55
2023-05-01T10:50:12.915Z,2.40
2023-05-01T10:53:14.695Z,3.42
2023-05-01T10:55:45.195Z,3.83
2023-05-01T10:58:14.811Z,2.67
2023-05-01T11:00:42.474Z,3.28
2023-05-01T11:03:30.833Z,3.13
2023-05-01T11:06:03.899Z,4.00
2023-05-01T11:08:37.791Z,3.55
2023-05-01T11:11:23.494Z,3.50
2023-05-01T11:14:02.266Z,2.92
2023-05-01T11:16:46.835Z,2.78
2023-05-01T11:19:23.843Z,3.10
2023-05-01T11:21:51.761Z,3.30
2023-05-01T11:24:19.779Z,2.88
2023-05-01T11:26:48.696Z,2.43
2023-05-01T11:29:18.267Z,2.53
2023-05-01T11:31:51.548Z,2.28
2023-05-01T11:34:19.419Z,2.80
2023-05-01T11:36:52.640Z,2.40
2023-05-01T11:39:22.307Z,2.30
2023-05-01T11:41:50.405Z,1.80
2023-05-01T11:44:20.344Z,2.28
2023-05-01T11:47:01.286Z,2.35
2023-05-01T11:49:29.755Z,2.00
2023-05-01T11:51:58.503Z,2.38
2023-05-01T11:54:27.131Z,2.40
2023-05-01T11:57:00.199Z,2.40
2023-05-01T11:59:28.205Z,2.70
2023-05-01T12:01:55.949Z,2.05
2023-05-01T12:04:29.715Z,1.80
2023-05-01T12:06:59.585Z,1.77
2023-05-01T12:09:28.668Z,1.42
2023-05-01T12:11:59.796Z,1.48
2023-05-01T12:14:27.864Z,1.10
2023-05-01T12:16:55.705Z,1.27
2023-05-01T12:19:24.103Z,1.20
2023-05-01T12:22:07.033Z,1.02
2023-05-01T12:24:35.007Z,1.30
2023-05-01T12:27:03.638Z,1.23
2023-05-01T12:29:41.911Z,1.33
2023-05-01T12:32:10.313Z,1.50
2023-05-01T12:34:38.636Z,0.95
2023-05-01T12:37:06.461Z,1.30
2023-05-01T12:39:42.679Z,1.20
2023-05-01T12:42:14.924Z,1.27
2023-05-01T12:44:43.840Z,1.77
2023-05-01T12:49:40.721Z,1.27
2023-05-01T12:52:09.257Z,1.52
2023-05-01T12:54:39.335Z,1.30
2023-05-01T12:57:12.244Z,1.48
2023-05-01T12:59:41.912Z,1.60
2023-05-01T13:02:12.357Z,1.30
2023-05-01T13:04:41.114Z,1.50
2023-05-01T13:07:19.339Z,0.90
2023-05-01T13:10:00.437Z,1.10
2023-05-01T13:12:30.749Z,0.95
2023-05-01T13:14:59.295Z,1.27
2023-05-01T13:17:31.960Z,1.33
2023-05-01T13:20:05.258Z,1.95
2023-05-01T13:22:35.089Z,1.20
2023-05-01T13:25:04.518Z,1.10
2023-05-01T13:27:32.659Z,0.90
2023-05-01T13:30:01.174Z,0.70
2023-05-01T13:35:01.498Z,1.00
2023-05-01T13:37:29.906Z,0.70
2023-05-01T13:40:01.141Z,0.85
2023-05-01T13:42:29.024Z,0.90
2023-05-01T13:44:57.812Z,0.85
2023-05-01T13:47:26.886Z,1.05
2023-05-01T13:49:54.897Z,1.05
2023-05-01T13:52:23.346Z,1.25
2023-05-01T13:54:55.868Z,1.02
2023-05-01T13:57:23.664Z,1.10
2023-05-01T13:59:51.663Z,0.60
2023-05-01T14:02:28.801Z,1.20
2023-05-01T14:04:58.585Z,0.85
2023-05-01T14:07:28.572Z,0.95
2023-05-01T14:09:58.035Z,1.20
2023-05-01T14:12:30.853Z,0.95
2023-05-01T14:15:01.255Z,1.05
2023-05-01T14:17:38.024Z,0.80
2023-05-01T14:20:07.255Z,0.75
2023-05-01T14:22:46.069Z,1.00
2023-05-01T14:25:29.222Z,0.88
2023-05-01T14:27:59.202Z,1.15
2023-05-01T14:30:37.359Z,1.13
2023-05-01T14:33:17.543Z,0.80
2023-05-01T14:35:50.427Z,0.90
2023-05-01T14:38:19.664Z,1.02
2023-05-01T14:40:48.432Z,0.90
2023-05-01T14:43:22.097Z,1.00
2023-05-01T14:45:50.099Z,1.10
2023-05-01T14:48:25.533Z,1.13
2023-05-01T14:50:55.104Z,0.98
2023-05-01T14:53:23.500Z,1.17
2023-05-01T14:55:52.424Z,0.60
2023-05-01T14:58:20.102Z,0.90
2023-05-01T15:00:47.706Z,0.90
2023-05-01T15:03:18.422Z,0.88
2023-05-01T15:05:46.260Z,1.17
2023-05-01T15:08:13.959Z,0.85
2023-05-01T15:10:42.828Z,1.00
2023-05-01T15:15:38.112Z,1.15
2023-05-01T15:18:05.788Z,1.10
2023-05-01T15:20:33.519Z,0.90
2023-05-01T15:23:01.322Z,0.95
2023-05-01T15:25:28.957Z,1.08
2023-05-01T15:27:57.177Z,0.93
2023-05-01T15:30:25.205Z,0.90
2023-05-01T15:32:55.454Z,0.88
2023-05-01T15:35:23.855Z,1.08
2023-05-01T15:37:51.537Z,1.15
2023-05-01T15:40:19.351Z,1.27
2023-05-01T15:42:48.165Z,1.00
2023-05-01T15:45:15.891Z,1.17
2023-05-01T15:47:43.643Z,1.00
2023-05-01T15:50:11.993Z,1.08
2023-05-01T15:52:39.647Z,1.27
2023-05-01T15:55:07.566Z,0.98
2023-05-01T15:57:35.810Z,0.90
2023-05-01T16:00:04.692Z,0.95
2023-05-01T16:05:00.816Z,1.00
2023-05-01T16:07:29.812Z,1.00
2023-05-01T16:09:58.341Z,1.10
2023-05-01T16:14:57.201Z,1.10
2023-05-01T16:17:24.862Z,1.20
2023-05-01T16:19:52.860Z,1.33
2023-05-01T16:22:21.334Z,1.50
2023-05-01T16:24:49.070Z,1.52
2023-05-01T16:27:18.315Z,1.45
2023-05-01T16:29:46.014Z,1.58
2023-05-01T16:32:16.939Z,2.00
2023-05-01T16:34:44.937Z,1.58
2023-05-01T16:37:15.179Z,1.35
2023-05-01T16:39:42.790Z,0.82
2023-05-01T16:42:13.338Z,1.40
2023-05-01T16:44:41.473Z,1.25
2023-05-01T16:47:11.849Z,1.03
2023-05-01T16:49:42.341Z,1.52
2023-05-01T16:52:14.205Z,1.27
2023-05-01T16:54:41.871Z,1.58
2023-05-01T16:57:09.573Z,1.67
2023-05-01T16:59:37.895Z,1.33
2023-05-01T17:02:06.594Z,1.55
2023-05-01T17:04:34.415Z,1.50
2023-05-01T17:07:02.071Z,1.30
2023-05-01T17:09:30.096Z,1.27
2023-05-01T17:11:59.053Z,1.60
2023-05-01T17:17:03.632Z,1.50
2023-05-01T17:19:32.423Z,1.65
2023-05-01T17:22:00.067Z,1.60
2023-05-01T17:24:28.288Z,1.40
2023-05-01T17:26:57.539Z,1.35
2023-05-01T17:29:27.566Z,1.20
2023-05-01T17:39:08.450Z,1.17
2023-05-01T17:41:36.343Z,1.20
2023-05-01T17:54:57.470Z,1.23
2023-05-01T17:57:25.175Z,1.23
2023-05-01T17:59:52.756Z,1.02
2023-05-01T18:02:20.546Z,1.27
2023-05-01T18:04:50.225Z,1.13
2023-05-01T18:07:17.876Z,1.40
2023-05-01T18:09:45.521Z,1.08
2023-05-01T18:12:13.133Z,1.38
2023-05-01T18:14:40.983Z,0.90
2023-05-01T18:17:09.014Z,0.88
2023-05-01T18:19:36.785Z,0.98
2023-05-01T18:22:04.457Z,1.00
2023-05-01T18:24:32.128Z,0.93
2023-05-01T18:27:00.105Z,0.90
2023-05-01T18:29:27.838Z,0.80
2023-05-01T18:31:55.613Z,0.93
2023-05-01T18:34:23.553Z,1.00
2023-05-01T18:36:59.761Z,1.00
2023-05-01T18:39:31.829Z,0.63
